Latest Weather Observations for Rhyll

IDV60901

Issued at 5:25 am EST Wednesday 23 July 2014 (issued every 10 minutes, with the page automatically refreshed every 10 minutes)

About weather observations | Map of Melbourne area stations | Latest observations for Melbourne area | Other Formats
Station Details ID: 086373 Name: RHYLL Lat: -38.46 Lon: 145.31 Height: 13.4 m
Data from the previous 72 hours. | See also: Recent months at Rhyll
Date/Time
EST
Tmp

°C
App
Tmp
°C
Dew
Point
°C
Rel
Hum
%
Delta-T

°C
Wind Press
QNH
hPa
Press
MSL
hPa
Rain
since
9 am
mm
Dir
 
Spd
km/h
Gust
km/h
Spd
kts
Gust
kts
22/09:00pm 7.2 5.7 6.8 97 0.2 ESE 4 6 2 3 1025.0 1025.0 0.0
22/08:30pm 7.7 6.3 7.3 97 0.2 SSE 4 6 2 3 1024.9 - 0.0
22/08:00pm 7.7 6.7 7.3 97 0.2 SE 2 6 1 3 1024.7 1024.7 0.0
22/07:30pm 7.7 7.0 7.1 96 0.3 CALM 0 0 0 0 1024.7 - 0.0
22/07:00pm 7.5 6.4 6.8 95 0.3 E 2 4 1 2 1024.7 1024.7 0.0
22/06:30pm 7.0 6.1 6.1 94 0.4 CALM 0 0 0 0 1024.7 - 0.0
22/06:00pm 7.5 6.7 6.3 92 0.5 CALM 0 0 0 0 1024.6 1024.6 0.0
22/05:30pm 8.3 7.6 6.9 91 0.7 CALM 0 0 0 0 1024.6 - 0.0
22/05:00pm 9.3 8.8 7.7 90 0.8 CALM 0 0 0 0 1024.6 1024.6 0.0
22/04:30pm 9.7 8.8 7.8 88 0.9 E 2 4 1 2 1024.6 - 0.0
22/04:00pm 10.2 9.0 8.0 86 1.1 ENE 4 6 2 3 1024.7 1024.7 0.0
22/03:30pm 11.2 10.0 8.1 81 1.5 ENE 4 6 2 3 1024.7 - 0.0
22/03:00pm 10.4 9.3 7.1 80 1.6 NE 2 4 1 2 1024.8 1024.8 0.0
22/02:30pm 9.4 8.3 6.8 84 1.2 N 2 4 1 2 1024.8 - 0.0
22/02:00pm 8.8 7.0 7.3 90 0.7 N 6 7 3 4 1025.1 1025.1 0.0
22/01:30pm 8.2 6.5 7.4 95 0.4 NNW 6 7 3 4 1025.3 - 0.0
22/01:00pm 7.6 5.8 7.3 98 0.1 NNW 6 9 3 5 1025.7 1025.7 0.0
22/12:30pm 6.8 4.9 6.7 99 0.0 NNW 6 9 3 5 1026.1 - 0.0
22/12:00pm 6.6 4.7 6.5 99 0.0 N 6 9 3 5 1026.5 1026.5 0.0
22/11:30am 6.3 4.7 6.2 99 0.0 NNW 4 7 2 4 1026.7 - 0.0
22/11:00am 5.8 3.7 5.7 99 0.0 NNW 6 9 3 5 1027.2 1027.2 0.0
22/10:30am 5.7 3.4 5.6 99 0.0 N 7 9 4 5 1027.1 - 0.0
22/10:00am 7.0 5.0 6.9 99 0.0 NE 7 9 4 5 1027.0 1027.0 0.0
22/09:30am 6.6 5.0 6.5 99 0.0 N 4 7 2 4 1026.9 - 0.0
22/09:00am 5.1 3.2 5.0 99 0.0 N 4 7 2 4 1026.7 1026.7 0.0
22/08:30am 4.5 1.9 4.4 99 0.0 N 7 9 4 5 1026.6 - 0.0
22/08:00am 5.5 4.1 5.4 99 0.0 NNW 2 6 1 3 1026.5 1026.5 0.0
22/07:30am 5.7 3.9 5.6 99 0.0 NNE 4 6 2 3 1026.2 - 0.0
22/07:00am 5.6 4.2 5.5 99 0.0 NNW 2 4 1 2 1025.8 1025.8 0.0
22/06:30am 5.7 3.9 5.6 99 0.0 WNW 4 7 2 4 1025.6 - 0.0
22/06:00am 6.4 4.4 6.3 99 0.0 NW 6 7 3 4 1025.2 1025.2 0.0
22/05:30am 6.6 5.0 6.5 99 0.0 NE 4 6 2 3 1025.2 - 0.0
22/05:00am 6.6 5.0 6.5 99 0.0 N 4 6 2 3 1025.1 1025.1 0.0
22/04:30am 5.9 3.8 5.6 98 0.1 ENE 6 7 3 4 1025.0 - 0.0
22/04:00am 5.7 3.3 5.4 98 0.1 ENE 7 9 4 5 1024.9 1024.9 0.0
22/03:30am 5.5 3.7 5.2 98 0.1 ESE 4 6 2 3 1024.8 - 0.0
22/03:00am 6.6 5.8 6.3 98 0.1 CALM 0 2 0 1 1025.0 1025.0 0.0
22/02:30am 6.8 6.0 6.5 98 0.1 CALM 0 0 0 0 1025.0 - 0.0
22/02:00am 6.9 6.1 6.6 98 0.1 CALM 0 0 0 0 1025.1 1025.1 0.0
22/01:30am 6.2 5.2 5.8 97 0.2 CALM 0 0 0 0 1025.0 - 0.0
22/01:00am 6.3 4.9 5.7 96 0.3 E 2 2 1 1 1025.0 1025.0 0.0
22/12:30am 5.9 4.1 5.2 95 0.3 ESE 4 4 2 2 1025.3 - 0.0
22/12:00am 6.8 5.1 6.1 95 0.3 ESE 4 4 2 2 1025.3 1025.3 0.0
 
Date/Time
EST
Tmp

°C
App
Tmp
°C
Dew
Point
°C
Rel
Hum
%
Delta-T

°C
Wind Press
QNH
hPa
Press
MSL
hPa
Rain
since
9 am
mm
Dir
 
Spd
km/h
Gust
km/h
Spd
kts
Gust
kts
21/11:30pm 7.3 6.1 6.6 95 0.3 ESE 2 4 1 2 1025.5 - 0.0
21/11:00pm 7.4 6.3 6.8 96 0.3 SSE 2 4 1 2 1025.6 1025.6 0.0
21/10:30pm 7.4 5.9 7.0 97 0.2 S 4 6 2 3 1025.6 - 0.0
21/10:00pm 7.4 6.3 7.0 97 0.2 SSE 2 4 1 2 1025.6 1025.6 0.0
21/09:30pm 7.7 5.9 7.3 97 0.2 ESE 6 7 3 4 1025.5 - 0.0
21/09:00pm 8.3 7.4 7.9 97 0.2 SSE 2 4 1 2 1025.3 1025.3 0.0
21/08:30pm 8.2 7.3 7.8 97 0.2 ESE 2 4 1 2 1025.3 - 0.0
21/08:00pm 8.7 8.3 8.1 96 0.3 CALM 0 0 0 0 1025.4 1025.4 0.0
21/07:30pm 8.9 8.6 8.5 97 0.2 CALM 0 0 0 0 1025.4 - 0.0
21/07:00pm 9.0 7.9 8.6 97 0.2 S 4 6 2 3 1025.4 1025.4 0.0
21/06:30pm 8.8 8.4 8.2 96 0.3 CALM 0 4 0 2 1025.2 - 0.0
21/06:00pm 8.4 7.8 7.6 95 0.4 CALM 0 0 0 0 1025.2 1025.2 0.0
21/05:30pm 8.7 8.2 7.9 95 0.4 CALM 0 0 0 0 1025.0 - 0.0
21/05:00pm 9.0 8.6 8.1 94 0.4 CALM 0 2 0 1 1024.8 1024.8 0.0
21/04:30pm 9.3 8.9 8.2 93 0.5 CALM 0 0 0 0 1024.7 - 0.0
21/04:00pm 9.5 8.7 8.3 92 0.6 E 2 4 1 2 1024.7 1024.7 0.0
21/03:30pm 10.3 9.3 8.9 91 0.7 E 4 6 2 3 1024.7 - 0.0
21/03:00pm 10.4 9.9 9.3 93 0.5 E 2 4 1 2 1024.6 1024.6 0.0
21/02:30pm 9.9 9.4 9.3 96 0.3 E 2 4 1 2 1024.7 - 0.0
21/02:00pm 9.9 9.1 9.6 98 0.1 ENE 4 6 2 3 1024.9 1024.9 0.0
21/01:30pm 9.4 8.5 9.3 99 0.0 NNE 4 6 2 3 1025.1 - 0.0
21/01:00pm 8.4 7.3 8.3 99 0.0 N 4 7 2 4 1025.4 1025.4 0.0
21/12:30pm 8.4 6.7 8.3 99 0.0 NNW 7 9 4 5 1025.7 - 0.0
21/12:00pm 8.4 6.3 8.3 99 0.0 NNW 9 11 5 6 1025.9 1025.9 0.0
21/11:30am 8.2 7.0 8.1 99 0.0 N 4 7 2 4 1026.4 - 0.0
21/11:00am 7.9 6.6 7.8 99 0.0 NNE 4 7 2 4 1026.5 1026.5 0.0
21/10:30am 7.7 5.4 7.6 99 0.0 NE 9 11 5 6 1026.8 - 0.0
21/10:00am 7.6 5.9 7.5 99 0.0 NE 6 7 3 4 1026.7 1026.7 0.0
21/09:30am 6.9 4.8 6.8 99 0.0 NE 7 11 4 6 1026.7 - 0.0
21/09:00am 7.3 4.9 7.2 99 0.0 NE 9 11 5 6 1026.8 1026.8 0.6
21/08:30am 7.1 4.7 7.0 99 0.0 NNE 9 13 5 7 1026.6 - 0.6
21/08:00am 7.1 4.7 7.0 99 0.0 NE 9 11 5 6 1026.6 1026.6 0.6
21/07:30am 6.9 4.5 6.8 99 0.0 NE 9 11 5 6 1026.5 - 0.6
21/07:00am 7.2 4.8 7.1 99 0.0 NE 9 11 5 6 1026.2 1026.2 0.6
21/06:30am 7.5 6.1 7.4 99 0.0 N 4 11 2 6 1026.0 - 0.2
21/06:00am 7.2 5.4 7.1 99 0.0 NNW 6 7 3 4 1025.9 1025.9 0.2
21/05:30am 7.1 5.3 7.0 99 0.0 NNW 6 9 3 5 1025.9 - 0.2
21/05:00am 7.0 5.1 6.9 99 0.0 NW 6 9 3 5 1025.8 1025.8 0.2
21/04:30am 7.3 5.5 7.2 99 0.0 NW 6 9 3 5 1025.9 - 0.2
21/04:00am 7.6 5.7 7.5 99 0.0 NNW 7 9 4 5 1026.0 1026.0 0.2
21/03:30am 8.2 7.8 8.1 99 0.0 CALM 0 0 0 0 1026.1 - 0.2
21/03:00am 8.1 7.6 8.0 99 0.0 CALM 0 0 0 0 1026.1 1026.1 0.2
21/02:30am 8.2 7.4 8.1 99 0.0 N 2 2 1 1 1026.1 - 0.2
21/02:00am 8.4 7.6 8.3 99 0.0 NE 2 4 1 2 1026.0 1026.0 0.2
21/01:30am 8.3 7.9 8.2 99 0.0 CALM 0 2 0 1 1026.0 - 0.2
21/01:00am 8.5 8.1 8.4 99 0.0 CALM 0 0 0 0 1026.2 1026.2 0.2
21/12:30am 8.3 7.8 8.0 98 0.1 CALM 0 0 0 0 1026.4 - 0.2
21/12:00am 8.0 7.5 7.7 98 0.1 CALM 0 0 0 0 1026.6 1026.6 0.2
 
Date/Time
EST
Tmp

°C
App
Tmp
°C
Dew
Point
°C
Rel
Hum
%
Delta-T

°C
Wind Press
QNH
hPa
Press
MSL
hPa
Rain
since
9 am
mm
Dir
 
Spd
km/h
Gust
km/h
Spd
kts
Gust
kts
20/11:30pm 9.1 8.8 8.8 98 0.1 CALM 0 0 0 0 1026.9 - 0.2
20/11:00pm 9.1 8.8 8.8 98 0.1 CALM 0 0 0 0 1026.9 1026.9 0.2
20/10:30pm 8.3 7.8 7.9 97 0.2 CALM 0 0 0 0 1026.9 - 0.2
20/10:00pm 8.9 7.8 8.5 97 0.2 NNW 4 7 2 4 1027.0 1027.0 0.2
20/09:30pm 8.8 8.1 8.4 97 0.2 SSE 2 4 1 2 1026.9 - 0.2
20/09:00pm 8.6 8.1 8.0 96 0.3 CALM 0 0 0 0 1026.9 1026.9 0.2
20/08:30pm 9.0 8.2 8.2 95 0.4 ENE 2 6 1 3 1026.9 - 0.2
20/08:00pm 9.7 9.1 8.9 95 0.4 N 2 4 1 2 1027.0 1027.0 0.2
20/07:30pm 9.9 9.0 9.1 95 0.4 NNE 4 4 2 2 1027.0 - 0.2
20/07:00pm 9.2 8.8 8.3 94 0.4 CALM 0 4 0 2 1027.0 1027.0 0.2
20/06:30pm 9.4 8.3 8.3 93 0.5 NE 4 6 2 3 1026.9 - 0.2
20/06:00pm 10.1 9.9 8.9 92 0.6 CALM 0 0 0 0 1026.8 1026.8 0.2
20/05:30pm 9.9 9.6 8.5 91 0.7 CALM 0 0 0 0 1026.6 - 0.2
20/05:00pm 10.7 10.6 9.3 91 0.7 CALM 0 0 0 0 1026.6 1026.6 0.2
20/04:30pm 10.9 10.8 9.5 91 0.7 CALM 0 0 0 0 1026.6 - 0.2
20/04:00pm 11.1 10.7 9.9 92 0.6 E 2 4 1 2 1026.6 1026.6 0.2
20/03:30pm 11.5 10.8 10.1 91 0.7 ESE 4 6 2 3 1026.6 - 0.2
20/03:00pm 11.5 10.3 9.4 87 1.0 SSW 6 7 3 4 1026.5 1026.5 0.0
20/02:30pm 12.4 12.0 9.6 83 1.4 N 2 4 1 2 1026.6 - 0.0
20/02:00pm 11.9 11.5 9.6 86 1.2 N 2 4 1 2 1026.7 1026.7 0.0
20/01:30pm 11.9 10.7 9.6 86 1.2 N 6 7 3 4 1026.9 - 0.0
20/01:00pm 12.7 12.2 10.6 87 1.1 NNE 4 6 2 3 1027.2 1027.2 0.0
20/12:30pm 11.7 10.7 10.4 92 0.7 NNE 6 7 3 4 1027.6 - 0.0
20/12:00pm 11.7 10.2 10.4 92 0.7 NE 9 11 5 6 1027.9 1027.9 0.0
20/11:30am 11.2 9.6 10.3 94 0.5 ENE 9 11 5 6 1028.3 - 0.0
20/11:00am 10.7 9.9 9.8 94 0.5 NE 4 6 2 3 1028.6 1028.6 0.0
20/10:30am 10.3 8.5 9.5 95 0.4 N 9 11 5 6 1028.6 - 0.0
20/10:00am 9.6 7.7 9.1 97 0.2 N 9 13 5 7 1028.5 1028.5 0.0
20/09:30am 9.6 8.3 9.3 98 0.1 N 6 7 3 4 1028.5 - 0.0
20/09:00am 9.6 8.1 9.3 98 0.1 NNW 7 11 4 6 1028.3 1028.3 1.4
20/08:30am 9.3 7.4 9.0 98 0.1 NNW 9 13 5 7 1028.1 - 1.4
20/08:00am 9.1 7.1 8.8 98 0.1 NNW 9 11 5 6 1028.0 1028.0 1.4
20/07:30am 8.9 7.3 8.6 98 0.1 NNW 7 11 4 6 1027.8 - 1.4
20/07:00am 8.8 6.8 8.5 98 0.1 N 9 13 5 7 1027.8 1027.8 1.4
20/06:30am 8.7 6.6 8.3 97 0.2 NNW 9 13 5 7 1027.6 - 1.4
20/06:00am 8.6 6.1 8.0 96 0.3 NNW 11 15 6 8 1027.4 1027.4 1.4
20/05:30am 8.7 6.6 8.3 97 0.2 N 9 11 5 6 1027.2 - 1.4

Latest Capital City Observations: Canberra | Sydney | Melbourne | Brisbane | Adelaide | Perth | Hobart | Darwin

Other Formats:

Comma delimited format used in spreadsheet applications
http://www.bom.gov.au/fwo/IDV60901/IDV60901.94892.axf

JavaScript Object Notation format (JSON) in row-major order
http://www.bom.gov.au/fwo/IDV60901/IDV60901.94892.json